Crew | Aerofun Virtual



 METAR AND TAF INFORMATION
METAR FOR LFOP
ADDS - METARS form results

(0459 UTC 20 May 2019)
Data provider http://aviationweather.gov/metar/data/
 
METAR text: LFOP 200430Z AUTO 30006KT 280V340 5000 BR OVC032 10/09 Q1010
Conditions at: LFOP (ROUEN/BOOS (AUT), FR) observed 0430 UTC 20 May 2019
Temperature: 10.0°C (50°F)
Dewpoint: 9.0°C (48°F) [RH = 93%]
Pressure (altimeter): 29.82 inches Hg (1010.0 mb)
Winds: from the WNW (300 degrees) at 7 MPH (6 knots; 3.1 m/s)
Visibility: 3 miles ( 5 km)
Ceiling: 3200 feet AGL
Clouds: overcast cloud deck at 3200 feet AGL
Weather: BR  (mist)

METAR text: LFOP 200400Z AUTO 32005KT 6000 OVC033 10/09 Q1010
Conditions at: LFOP (ROUEN/BOOS (AUT), FR) observed 0400 UTC 20 May 2019
Temperature: 10.0°C (50°F)
Dewpoint: 9.0°C (48°F) [RH = 93%]
Pressure (altimeter): 29.82 inches Hg (1010.0 mb)
Winds: from the NW (320 degrees) at 6 MPH (5 knots; 2.6 m/s)
Visibility: 4 miles ( 6 km)
Ceiling: 3300 feet AGL
Clouds: overcast cloud deck at 3300 feet AGL
Weather: no significant weather observed at this time

Forecast for: AMD
Text: TAF AMD LFOP 191930Z 1919/2018 34005KT 3000 BR SCT010 SCT030
Forecast period: 1900 UTC 19 May 2019 to 0900 UTC 20 May 2019
Forecast type: FROM: standard forecast or significant change
Winds: from the NNW (340 degrees) at 6 MPH (5 knots; 2.6 m/s)
Visibility: 1.86 miles (2.99 km)
Ceiling: at least 12,000 feet AGL
Clouds: scattered clouds at 1000 feet AGL
scattered clouds at 3000 feet AGL
Weather: BR  (mist)
Text: PROB40 2003/2009 OVC003
Forecast period: 0300 to 0900 UTC 20 May 2019
Forecast type: PROBABLE: 40 percent likelihood of the following during this time
Visibility: missing
Ceiling: 300 feet AGL
Clouds: overcast cloud deck at 300 feet AGL
Weather: no significant weather forecast for this period
Text: BECMG 2009/2011 9999 NSW
Forecast period: 0900 to 1800 UTC 20 May 2019
Forecast type: BECOMING: Conditions expected to become as follows by 1100 UTC 20 May 2019
Winds: from the NNW (340 degrees) at 6 MPH (5 knots; 2.6 m/s)
Visibility: 6 or more miles 10+ km)
Ceiling: at least 12,000 feet AGL
Clouds: scattered clouds at 1000 feet AGL
scattered clouds at 3000 feet AGL
Weather: NSW  (no significant weather)

 AIRPORT MAP

 RUNWAY INFORMATION
Runway 04 Runway length 5577 ft Runway width 148 ft
Runway elevation 499 ft Runway displaced threshold 0 ft Runway heading 41
Runway 22 Runway length 5577 ft Runway width 148 ft
Runway elevation 512 ft Runway displaced threshold 0 ft Runway heading 221
Runway 05 Runway length 0 ft Runway width 0 ft
Runway elevation 499 ft Runway displaced threshold 0 ft Runway heading 0
Runway 23 Runway length 0 ft Runway width 0 ft
Runway elevation 507 ft Runway displaced threshold 0 ft Runway heading 0

 AIRPORT FREQUENCIES
Type APP Name ROUEN APP Frequency 118.575 MHZ
Type ATIS Name ATIS Frequency 120.725 MHZ
Type TWR Name ROUEN TWR Frequency 120.2 MHZ

 AIRPORT NEAR NAVIGATION AIDS